National Oceanic and Atmospheric Ad Ministration (NOAA) METAR sites at Arizona area airports, and Alamosa, Colorado.

They usually update between ten till and the top of the hour, Glendale doesn't at night.  So they should update here at beginning of each hour.  METAR is an international standard Aviation Routine Weather Report code.  The reports are primarily collected by equipment such as Automated Surface Observing Systems (ASOS).  In the code the time is given in ZULU or UTC, wind in Knots, and temperatures in centigrade.

Weather Display Generates this local one from my data:

METAR FAQ


Phoenix Sky Harbor International Airport (KPHX) NOAA metar
Phoenix Sky Harbor International Airport (KPHX) NOAA metar
Sky Harbor Weather Conditions: clear

Forecast from Metar
KPHX 100451Z 00000KT 10SM CLR 12/03 A3005 RMK AO2 SLP170 T01170028


Phoenix, Phoenix Sky Harbor International Airport, AZ, United States (KPHX) 33-26-03N 112-03-04W 336M
Dec 09, 2022 - 11:51 PM EST / 2022.12.10 0451 UTC
Wind: Calm:0
Visibility: 10 mile(s):0
Sky conditions: clear
Temperature: 53.1 F (11.7 C)
Dew Point: 37.0 F (2.8 C)
Relative Humidity: 54%
Pressure (altimeter): 30.05 in. Hg (1017 hPa)
ob: KPHX 100451Z 00000KT 10SM CLR 12/03 A3005 RMK AO2 SLP170 T01170028
cycle: 5
clear




KDVT 100453Z AUTO 00000KT 10SM CLR 08/02 A3007 RMK AO2 SLP177 T00780022


PHOENIX-DEER VALLEY MUN, AZ, United States (KDVT) 33-41N 112-04W 443M
Dec 09, 2022 - 11:53 PM EST / 2022.12.10 0453 UTC
Wind: Calm:0
Visibility: 10 mile(s):0
Sky conditions: clear
Temperature: 46.0 F (7.8 C)
Dew Point: 36.0 F (2.2 C)
Relative Humidity: 67%
Pressure (altimeter): 30.07 in. Hg (1018 hPa)
ob: KDVT 100453Z AUTO 00000KT 10SM CLR 08/02 A3007 RMK AO2 SLP177 T00780022
cycle: 5
Phoenix-Deer Valley Municipal Airport (KDVT) NOAA




KGEU 100247Z 00000KT 10SM SKC 13/M01 A3005 RMK LAST 


Glendale, Glendale Municipal Airport, AZ, United States (KGEU) 33-31-38N 112-17-43W
Dec 09, 2022 - 09:47 PM EST / 2022.12.10 0247 UTC
Wind: Calm:0
Visibility: 10 mile(s):0
Sky conditions: clear
Temperature: 55 F (13 C)
Dew Point: 30 F (-1 C)
Relative Humidity: 37%
Pressure (altimeter): 30.05 in. Hg (1017 hPa)
ob: KGEU 100247Z 00000KT 10SM SKC 13/M01 A3005 RMK LAST 
cycle: 3
Glendale Municipal Airport (KGEU) NOAA




KSDL 100453Z AUTO 00000KT 10SM CLR 11/01 A3008 RMK AO2 SLP177 T01110006


SCOTTSDALE AIRPORT, AZ, United States (KSDL) 33-37N 111-55W 447M
Dec 09, 2022 - 11:53 PM EST / 2022.12.10 0453 UTC
Wind: Calm:0
Visibility: 10 mile(s):0
Sky conditions: clear
Temperature: 52.0 F (11.1 C)
Dew Point: 33.1 F (0.6 C)
Relative Humidity: 48%
Pressure (altimeter): 30.08 in. Hg (1018 hPa)
ob: KSDL 100453Z AUTO 00000KT 10SM CLR 11/01 A3008 RMK AO2 SLP177 T01110006
cycle: 5
Scottsdale, AZ Airport (KSDL) NOAA




KFFZ 100454Z 00000KT 10SM CLR 10/03 A3007 RMK AO2 SLP172 T01000028


Mesa / Falcon Field, AZ, United States (KFFZ) 33-28N 111-44W
Dec 09, 2022 - 11:54 PM EST / 2022.12.10 0454 UTC
Wind: Calm:0
Visibility: 10 mile(s):0
Sky conditions: clear
Temperature: 50.0 F (10.0 C)
Dew Point: 37.0 F (2.8 C)
Relative Humidity: 60%
Pressure (altimeter): 30.07 in. Hg (1018 hPa)
ob: KFFZ 100454Z 00000KT 10SM CLR 10/03 A3007 RMK AO2 SLP172 T01000028
cycle: 5
Mesa / Falcon Field (KFFZ) NOAA




KGYR 100347Z 00000KT 10SM SKC 12/01 A3007 RMK LAST 


Goodyear Municipal, AZ, United States (KGYR) 33-25N 112-23W
Dec 09, 2022 - 10:47 PM EST / 2022.12.10 0347 UTC
Wind: Calm:0
Visibility: 10 mile(s):0
Sky conditions: clear
Temperature: 53 F (12 C)
Dew Point: 33 F (1 C)
Relative Humidity: 46%
Pressure (altimeter): 30.07 in. Hg (1018 hPa)
ob: KGYR 100347Z 00000KT 10SM SKC 12/01 A3007 RMK LAST 
cycle: 4
Goodyear Municipal (KGYR) NOAA




KCHD 100347Z 00000KT 10SM CLR 11/03 A3006 RMK LAST 


Chandler, Chandler Municipal Airport, AZ, United States (KCHD) 33-16-09N 111-48-40W
Dec 09, 2022 - 10:47 PM EST / 2022.12.10 0347 UTC
Wind: Calm:0
Visibility: 10 mile(s):0
Sky conditions: clear
Temperature: 51 F (11 C)
Dew Point: 37 F (3 C)
Relative Humidity: 57%
Pressure (altimeter): 30.06 in. Hg (1017 hPa)
ob: KCHD 100347Z 00000KT 10SM CLR 11/03 A3006 RMK LAST 
cycle: 4
Chandler, Chandler Municipal Airport (KCHD) NOAA




KIWA 100455Z AUTO 15003KT 10SM CLR 09/04 A3008 RMK AO2 T00870040


Mesa, Williams Gateway Airport, AZ, United States (KIWA) 33-19N 111-39W
Dec 09, 2022 - 11:55 PM EST / 2022.12.10 0455 UTC
Wind: from the SSE (150 degrees) at 3 MPH (3 KT):0
Visibility: 10 mile(s):0
Sky conditions: clear
Temperature: 47.7 F (8.7 C)
Dew Point: 39.2 F (4.0 C)
Relative Humidity: 72%
Pressure (altimeter): 30.08 in. Hg (1018 hPa)
ob: KIWA 100455Z AUTO 15003KT 10SM CLR 09/04 A3008 RMK AO2 T00870040
cycle: 5
Mesa, Williams Gateway Airport, AZ (KIWA) NOAA




KLUF 100355Z AUTO 33003KT 10SM CLR 10/01 A3005 RMK AO2 SLP176 T00970013 


Luke Air Force Base / Phoenix, AZ, United States (KLUF) 33-32N 112-23W 332M
Dec 09, 2022 - 10:55 PM EST / 2022.12.10 0355 UTC
Wind: from the NNW (330 degrees) at 3 MPH (3 KT):0
Visibility: 10 mile(s):0
Sky conditions: clear
Temperature: 49.5 F (9.7 C)
Dew Point: 34.3 F (1.3 C)
Relative Humidity: 55%
Pressure (altimeter): 30.05 in. Hg (1017 hPa)
ob: KLUF 100355Z AUTO 33003KT 10SM CLR 10/01 A3005 RMK AO2 SLP176 T00970013 
cycle: 4
Luke Air Force Base, AZ (KLUF)




KDMA 100455Z AUTO 18006KT 10SM CLR 06/03 A3008 RMK AO2 SLP219 T00640028 


Davis-Monthan Air Force Base, AZ, United States (KDMA) 32-10N 110-53W
Dec 09, 2022 - 11:55 PM EST / 2022.12.10 0455 UTC
Wind: from the S (180 degrees) at 7 MPH (6 KT):0
Visibility: 10 mile(s):0
Sky conditions: clear
Temperature: 43.5 F (6.4 C)
Dew Point: 37.0 F (2.8 C)
Relative Humidity: 77%
Pressure (altimeter): 30.08 in. Hg (1018 hPa)
ob: KDMA 100455Z AUTO 18006KT 10SM CLR 06/03 A3008 RMK AO2 SLP219 T00640028 
cycle: 5
 Davis-Monthan Air Force Base, AZ, (KDMA)  NOAA




KFLG 100457Z AUTO 00000KT 10SM CLR M06/M09 A3015 RMK AO2 SLP206 T10561094


FLAGSTAFF PULLIAM AIRPORT, AZ, United States (KFLG) 35-08N 111-40W 2134M
Dec 09, 2022 - 11:57 PM EST / 2022.12.10 0457 UTC
Wind: Calm:0
Visibility: 10 mile(s):0
Sky conditions: clear
Temperature: 21.9 F (-5.6 C)
Dew Point: 15.1 F (-9.4 C)
Relative Humidity: 74%
Pressure (altimeter): 30.15 in. Hg (1020 hPa)
ob: KFLG 100457Z AUTO 00000KT 10SM CLR M06/M09 A3015 RMK AO2 SLP206 T10561094
cycle: 5
Flagstaff, AZ Pulliam Airport (KFLG) NOAA




KALS 100452Z AUTO 08006KT 10SM CLR M08/M12 A3015 RMK AO2 SLP254 T10831122


SAN LUIS VALLEY REGIONAL, CO, United States (KALS) 37-26N 105-52W 2299M Dec 09, 2022 - 11:52 PM EST / 2022.12.10 0452 UTC Wind: from the E (080 degrees) at 7 MPH (6 KT):0 Visibility: 10 mile(s):0 Sky conditions: clear Temperature: 17.1 F (-8.3 C) Windchill: 6 F (-14 C):1 Dew Point: 10.0 F (-12.2 C) Relative Humidity: 73% Pressure (altimeter): 30.15 in. Hg (1020 hPa) ob: KALS 100452Z AUTO 08006KT 10SM CLR M08/M12 A3015 RMK AO2 SLP254 T10831122 cycle: 5 Alamosa, Colorado, San Luis Valley Regional (KALS) NOAA








<-- end Container -->


<-- Begin Footer -->